sensor_id;sensor_type;location;lat;lon;timestamp;pressure;altitude;pressure_sealevel;temperature;humidity
71194;BME280;58903;47.210;8.618;2023-10-09T00:02:14;95030.31;;;27.62;42.78
71194;BME280;58903;47.210;8.618;2023-10-09T00:05:06;95027.78;;;27.64;43.00
71194;BME280;58903;47.210;8.618;2023-10-09T00:07:47;95026.81;;;27.62;42.70
71194;BME280;58903;47.210;8.618;2023-10-09T00:10:14;95025.53;;;27.63;42.74
71194;BME280;58903;47.210;8.618;2023-10-09T00:12:43;95027.53;;;27.62;43.21
71194;BME280;58903;47.210;8.618;2023-10-09T00:15:28;95024.78;;;27.62;43.05
71194;BME280;58903;47.210;8.618;2023-10-09T00:18:02;95030.31;;;27.62;43.03
71194;BME280;58903;47.210;8.618;2023-10-09T00:20:46;95027.56;;;27.57;43.06
71194;BME280;58903;47.210;8.618;2023-10-09T00:23:21;95028.56;;;27.59;43.64
71194;BME280;58903;47.210;8.618;2023-10-09T00:25:53;95025.28;;;27.61;42.89
71194;BME280;58903;47.210;8.618;2023-10-09T00:29:06;95019.75;;;27.61;43.19
71194;BME280;58903;47.210;8.618;2023-10-09T00:31:48;95023.03;;;27.59;43.30
71194;BME280;58903;47.210;8.618;2023-10-09T00:34:22;95010.47;;;27.58;43.88
71194;BME280;58903;47.210;8.618;2023-10-09T00:37:23;95016.75;;;27.59;43.38
71194;BME280;58903;47.210;8.618;2023-10-09T00:40:03;95012.47;;;27.58;42.81
71194;BME280;58903;47.210;8.618;2023-10-09T00:42:38;95016.53;;;27.57;43.46
71194;BME280;58903;47.210;8.618;2023-10-09T00:45:05;95022.03;;;27.57;43.38
71194;BME280;58903;47.210;8.618;2023-10-09T00:47:52;95018.53;;;27.56;43.32
71194;BME280;58903;47.210;8.618;2023-10-09T00:50:35;95020.03;;;27.57;43.47
71194;BME280;58903;47.210;8.618;2023-10-09T00:53:05;95018.53;;;27.56;43.05
71194;BME280;58903;47.210;8.618;2023-10-09T00:55:58;95022.56;;;27.55;43.09
71194;BME280;58903;47.210;8.618;2023-10-09T00:58:33;95015.53;;;27.54;43.32
71194;BME280;58903;47.210;8.618;2023-10-09T01:01:01;95006.22;;;27.52;43.35
71194;BME280;58903;47.210;8.618;2023-10-09T01:03:30;95010.75;;;27.55;43.17
71194;BME280;58903;47.210;8.618;2023-10-09T01:06:11;95012.00;;;27.54;43.04
71194;BME280;58903;47.210;8.618;2023-10-09T01:08:42;95004.97;;;27.53;43.23
71194;BME280;58903;47.210;8.618;2023-10-09T01:11:17;95004.22;;;27.52;43.41
71194;BME280;58903;47.210;8.618;2023-10-09T01:14:05;95005.47;;;27.51;43.10
71194;BME280;58903;47.210;8.618;2023-10-09T01:16:45;94997.94;;;27.52;43.49
71194;BME280;58903;47.210;8.618;2023-10-09T01:19:23;95001.97;;;27.51;42.79
71194;BME280;58903;47.210;8.618;2023-10-09T01:22:00;94998.97;;;27.49;43.57
71194;BME280;58903;47.210;8.618;2023-10-09T01:24:55;94998.47;;;27.50;43.38
71194;BME280;58903;47.210;8.618;2023-10-09T01:27:21;94998.47;;;27.50;43.02
71194;BME280;58903;47.210;8.618;2023-10-09T01:29:52;95003.97;;;27.50;43.01
71194;BME280;58903;47.210;8.618;2023-10-09T01:32:49;95004.75;;;27.51;43.27
71194;BME280;58903;47.210;8.618;2023-10-09T01:35:16;95006.75;;;27.50;43.06
71194;BME280;58903;47.210;8.618;2023-10-09T01:37:56;94996.94;;;27.49;43.11
71194;BME280;58903;47.210;8.618;2023-10-09T01:40:23;94996.69;;;27.47;43.34
71194;BME280;58903;47.210;8.618;2023-10-09T01:43:29;94996.94;;;27.49;42.90
71194;BME280;58903;47.210;8.618;2023-10-09T01:46:03;94986.41;;;27.48;43.02
71194;BME280;58903;47.210;8.618;2023-10-09T01:48:30;94984.66;;;27.45;43.31
71194;BME280;58903;47.210;8.618;2023-10-09T01:51:31;94993.94;;;27.47;43.08
71194;BME280;58903;47.210;8.618;2023-10-09T01:54:19;94986.16;;;27.46;43.30
71194;BME280;58903;47.210;8.618;2023-10-09T01:57:19;94996.47;;;27.45;42.83
71194;BME280;58903;47.210;8.618;2023-10-09T01:59:49;94995.69;;;27.45;43.33
71194;BME280;58903;47.210;8.618;2023-10-09T02:02:34;94985.41;;;27.45;43.20
71194;BME280;58903;47.210;8.618;2023-10-09T02:05:05;94990.19;;;27.45;42.83
71194;BME280;58903;47.210;8.618;2023-10-09T02:07:47;94996.47;;;27.45;43.30
71194;BME280;58903;47.210;8.618;2023-10-09T02:10:26;94989.44;;;27.44;43.20
71194;BME280;58903;47.210;8.618;2023-10-09T02:13:04;94989.94;;;27.43;43.33
71194;BME280;58903;47.210;8.618;2023-10-09T02:15:40;94985.94;;;27.44;43.41
71194;BME280;58903;47.210;8.618;2023-10-09T02:18:15;94981.41;;;27.41;43.37
71194;BME280;58903;47.210;8.618;2023-10-09T02:21:14;94989.94;;;27.43;43.52
71194;BME280;58903;47.210;8.618;2023-10-09T02:23:52;94986.22;;;27.40;43.07
71194;BME280;58903;47.210;8.618;2023-10-09T02:26:23;94985.44;;;27.40;43.19
71194;BME280;58903;47.210;8.618;2023-10-09T02:28:58;94986.22;;;27.40;42.79
71194;BME280;58903;47.210;8.618;2023-10-09T02:31:27;94989.69;;;27.41;43.49
71194;BME280;58903;47.210;8.618;2023-10-09T02:34:09;94976.91;;;27.38;43.19
71194;BME280;58903;47.210;8.618;2023-10-09T02:36:53;94975.66;;;27.39;43.34
71194;BME280;58903;47.210;8.618;2023-10-09T02:39:36;94975.66;;;27.39;43.04
71194;BME280;58903;47.210;8.618;2023-10-09T02:42:23;94979.16;;;27.39;43.27
71194;BME280;58903;47.210;8.618;2023-10-09T02:44:54;94976.41;;;27.39;43.23
71194;BME280;58903;47.210;8.618;2023-10-09T02:47:37;94975.66;;;27.39;43.21
71194;BME280;58903;47.210;8.618;2023-10-09T02:50:34;94973.41;;;27.37;43.36
71194;BME280;58903;47.210;8.618;2023-10-09T02:53:26;94968.38;;;27.36;43.10
71194;BME280;58903;47.210;8.618;2023-10-09T02:55:58;94962.34;;;27.37;43.10
71194;BME280;58903;47.210;8.618;2023-10-09T02:58:50;94967.13;;;27.37;43.13
71194;BME280;58903;47.210;8.618;2023-10-09T03:01:20;94971.88;;;27.36;43.10
71194;BME280;58903;47.210;8.618;2023-10-09T03:03:51;94966.34;;;27.36;43.21
71194;BME280;58903;47.210;8.618;2023-10-09T03:06:23;94969.59;;;27.35;43.08
71194;BME280;58903;47.210;8.618;2023-10-09T03:08:57;94971.16;;;27.36;43.18
71194;BME280;58903;47.210;8.618;2023-10-09T03:11:55;94973.16;;;27.35;43.29
71194;BME280;58903;47.210;8.618;2023-10-09T03:14:47;94971.16;;;27.36;43.22
71194;BME280;58903;47.210;8.618;2023-10-09T03:17:24;94970.13;;;27.33;43.39
71194;BME280;58903;47.210;8.618;2023-10-09T03:20:02;94962.59;;;27.34;43.09
71194;BME280;58903;47.210;8.618;2023-10-09T03:22:35;94966.84;;;27.35;43.27
71194;BME280;58903;47.210;8.618;2023-10-09T03:25:02;94960.84;;;27.31;43.37
71194;BME280;58903;47.210;8.618;2023-10-09T03:27:44;94973.66;;;27.34;43.29
71194;BME280;58903;47.210;8.618;2023-10-09T03:30:17;94973.66;;;27.34;43.53
71194;BME280;58903;47.210;8.618;2023-10-09T03:32:54;94975.13;;;27.35;43.02
71194;BME280;58903;47.210;8.618;2023-10-09T03:35:23;94975.66;;;27.33;43.20
71194;BME280;58903;47.210;8.618;2023-10-09T03:38:10;94966.38;;;27.31;43.46
71194;BME280;58903;47.210;8.618;2023-10-09T03:40:53;94969.13;;;27.31;43.16
71194;BME280;58903;47.210;8.618;2023-10-09T03:43:39;94962.59;;;27.28;43.35
71194;BME280;58903;47.210;8.618;2023-10-09T03:46:17;94968.13;;;27.28;43.61
71194;BME280;58903;47.210;8.618;2023-10-09T03:48:54;94969.88;;;27.31;43.45
71194;BME280;58903;47.210;8.618;2023-10-09T03:54:43;94969.66;;;27.29;43.15
71194;BME280;58903;47.210;8.618;2023-10-09T03:57:24;94969.66;;;27.29;43.34
71194;BME280;58903;47.210;8.618;2023-10-09T03:59:50;94972.16;;;27.27;43.58
71194;BME280;58903;47.210;8.618;2023-10-09T04:02:18;94972.91;;;27.28;42.81
71194;BME280;58903;47.210;8.618;2023-10-09T04:04:46;94967.13;;;27.26;43.19
71194;BME280;58903;47.210;8.618;2023-10-09T04:07:23;94974.94;;;27.27;43.18
71194;BME280;58903;47.210;8.618;2023-10-09T04:09:49;94963.88;;;27.27;43.09
71194;BME280;58903;47.210;8.618;2023-10-09T04:12:38;94960.34;;;27.27;42.84
71194;BME280;58903;47.210;8.618;2023-10-09T04:15:06;94962.38;;;27.26;43.20
71194;BME280;58903;47.210;8.618;2023-10-09T04:18:05;94958.34;;;27.27;43.40
71194;BME280;58903;47.210;8.618;2023-10-09T04:20:38;94957.34;;;27.25;43.26
71194;BME280;58903;47.210;8.618;2023-10-09T04:23:33;94956.09;;;27.26;43.04
71194;BME280;58903;47.210;8.618;2023-10-09T04:26:15;94960.34;;;27.27;43.47
71194;BME280;58903;47.210;8.618;2023-10-09T04:28:50;94967.41;;;27.22;43.15
71194;BME280;58903;47.210;8.618;2023-10-09T04:31:20;94955.84;;;27.24;43.44
71194;BME280;58903;47.210;8.618;2023-10-09T04:33:48;94963.38;;;27.23;43.13
71194;BME280;58903;47.210;8.618;2023-10-09T04:36:39;94951.59;;;27.23;43.15
71194;BME280;58903;47.210;8.618;2023-10-09T04:39:23;94952.06;;;27.21;43.24
71194;BME280;58903;47.210;8.618;2023-10-09T04:41:58;94953.34;;;27.20;43.44
71194;BME280;58903;47.210;8.618;2023-10-09T04:44:43;94952.84;;;27.22;43.01
71194;BME280;58903;47.210;8.618;2023-10-09T04:47:35;94965.88;;;27.21;43.46
71194;BME280;58903;47.210;8.618;2023-10-09T04:50:16;94964.41;;;27.20;43.49
71194;BME280;58903;47.210;8.618;2023-10-09T04:52:44;94957.59;;;27.21;43.27
71194;BME280;58903;47.210;8.618;2023-10-09T04:55:12;94960.38;;;27.21;43.17
71194;BME280;58903;47.210;8.618;2023-10-09T04:57:48;94967.16;;;27.20;43.38
71194;BME280;58903;47.210;8.618;2023-10-09T05:00:27;94957.34;;;27.19;43.38
71194;BME280;58903;47.210;8.618;2023-10-09T05:02:55;94962.88;;;27.19;42.90
71194;BME280;58903;47.210;8.618;2023-10-09T05:05:34;94956.59;;;27.19;43.24
71194;BME280;58903;47.210;8.618;2023-10-09T05:08:07;94958.63;;;27.18;43.24
71194;BME280;58903;47.210;8.618;2023-10-09T05:10:48;94962.13;;;27.19;43.68
71194;BME280;58903;47.210;8.618;2023-10-09T05:13:26;94961.41;;;27.18;43.22
71194;BME280;58903;47.210;8.618;2023-10-09T05:16:10;94959.88;;;27.17;43.18
71194;BME280;58903;47.210;8.618;2023-10-09T05:18:54;94964.16;;;27.18;42.84
71194;BME280;58903;47.210;8.618;2023-10-09T05:21:23;94962.41;;;27.15;43.55
71194;BME280;58903;47.210;8.618;2023-10-09T05:24:28;94970.94;;;27.17;43.18
71194;BME280;58903;47.210;8.618;2023-10-09T05:27:42;94976.44;;;27.17;43.26
71194;BME280;58903;47.210;8.618;2023-10-09T05:30:21;94974.22;;;27.16;43.49
71194;BME280;58903;47.210;8.618;2023-10-09T05:33:00;94969.44;;;27.16;43.41
71194;BME280;58903;47.210;8.618;2023-10-09T05:35:56;94974.22;;;27.16;43.08
71194;BME280;58903;47.210;8.618;2023-10-09T05:38:51;94977.72;;;27.16;43.83
71194;BME280;58903;47.210;8.618;2023-10-09T05:41:37;94982.25;;;27.14;43.52
71194;BME280;58903;47.210;8.618;2023-10-09T05:44:34;94981.50;;;27.13;43.38
71194;BME280;58903;47.210;8.618;2023-10-09T05:47:24;94985.78;;;27.14;43.02
71194;BME280;58903;47.210;8.618;2023-10-09T05:50:17;94983.50;;;27.13;43.18
71194;BME280;58903;47.210;8.618;2023-10-09T05:52:44;94984.00;;;27.11;43.33
71194;BME280;58903;47.210;8.618;2023-10-09T05:55:34;94981.50;;;27.13;43.20
71194;BME280;58903;47.210;8.618;2023-10-09T05:58:56;94985.50;;;27.12;43.43
71194;BME280;58903;47.210;8.618;2023-10-09T06:02:03;94990.03;;;27.10;43.50
71194;BME280;58903;47.210;8.618;2023-10-09T06:04:43;94988.00;;;27.10;43.06
71194;BME280;58903;47.210;8.618;2023-10-09T06:07:44;94989.53;;;27.11;43.39
71194;BME280;58903;47.210;8.618;2023-10-09T06:10:38;94999.06;;;27.10;43.42
71194;BME280;58903;47.210;8.618;2023-10-09T06:13:26;94997.06;;;27.11;43.23
71194;BME280;58903;47.210;8.618;2023-10-09T06:16:26;95000.56;;;27.11;43.55
71194;BME280;58903;47.210;8.618;2023-10-09T06:19:11;95000.56;;;27.11;43.33
71194;BME280;58903;47.210;8.618;2023-10-09T06:21:42;95000.84;;;27.08;43.54
71194;BME280;58903;47.210;8.618;2023-10-09T06:24:20;94998.34;;;27.10;43.31
71194;BME280;58903;47.210;8.618;2023-10-09T06:27:04;95003.59;;;27.08;43.25
71194;BME280;58903;47.210;8.618;2023-10-09T06:29:42;95009.38;;;27.10;43.31
71194;BME280;58903;47.210;8.618;2023-10-09T06:32:23;95005.84;;;27.09;43.37
71194;BME280;58903;47.210;8.618;2023-10-09T06:34:56;95004.59;;;27.10;43.61
71194;BME280;58903;47.210;8.618;2023-10-09T06:38:09;94997.56;;;27.09;43.46
71194;BME280;58903;47.210;8.618;2023-10-09T06:41:34;95001.56;;;27.08;43.35
71194;BME280;58903;47.210;8.618;2023-10-09T06:44:21;94999.56;;;27.09;43.43
71194;BME280;58903;47.210;8.618;2023-10-09T06:47:15;94999.81;;;27.11;43.03
71194;BME280;58903;47.210;8.618;2023-10-09T06:50:14;95002.59;;;27.11;43.29
71194;BME280;58903;47.210;8.618;2023-10-09T06:52:59;94998.34;;;27.10;43.11
71194;BME280;58903;47.210;8.618;2023-10-09T06:55:39;95002.34;;;27.09;43.20
71194;BME280;58903;47.210;8.618;2023-10-09T06:58:22;95001.34;;;27.06;43.18
71194;BME280;58903;47.210;8.618;2023-10-09T07:01:18;95015.63;;;27.10;43.27
71194;BME280;58903;47.210;8.618;2023-10-09T07:04:19;95012.63;;;27.08;43.24
71194;BME280;58903;47.210;8.618;2023-10-09T07:07:40;95014.13;;;27.09;43.36
71194;BME280;58903;47.210;8.618;2023-10-09T07:10:17;95019.66;;;27.09;43.48
71194;BME280;58903;47.210;8.618;2023-10-09T07:13:19;95010.09;;;27.10;43.21
71194;BME280;58903;47.210;8.618;2023-10-09T07:16:01;95021.91;;;27.11;43.39
71194;BME280;58903;47.210;8.618;2023-10-09T07:19:21;95010.09;;;27.10;43.34
71194;BME280;58903;47.210;8.618;2023-10-09T07:22:02;95021.16;;;27.10;43.35
71194;BME280;58903;47.210;8.618;2023-10-09T07:25:12;95024.44;;;27.09;43.51
71194;BME280;58903;47.210;8.618;2023-10-09T07:27:54;95023.19;;;27.10;43.28
71194;BME280;58903;47.210;8.618;2023-10-09T07:30:32;95018.91;;;27.09;43.21
71194;BME280;58903;47.210;8.618;2023-10-09T07:33:23;95022.66;;;27.11;43.25
71194;BME280;58903;47.210;8.618;2023-10-09T07:36:01;95021.91;;;27.11;43.70
71194;BME280;58903;47.210;8.618;2023-10-09T07:38:50;95024.16;;;27.12;43.33
71194;BME280;58903;47.210;8.618;2023-10-09T07:41:21;95025.19;;;27.09;43.30
71194;BME280;58903;47.210;8.618;2023-10-09T07:43:50;95030.19;;;27.11;43.23
71194;BME280;58903;47.210;8.618;2023-10-09T07:46:31;95032.44;;;27.12;43.60
71194;BME280;58903;47.210;8.618;2023-10-09T07:49:18;95038.72;;;27.13;43.69
71194;BME280;58903;47.210;8.618;2023-10-09T07:51:59;95035.47;;;27.14;43.24
71194;BME280;58903;47.210;8.618;2023-10-09T07:54:55;95030.69;;;27.15;43.02
71194;BME280;58903;47.210;8.618;2023-10-09T07:57:30;95031.44;;;27.15;43.17
71194;BME280;58903;47.210;8.618;2023-10-09T08:00:15;95035.47;;;27.14;43.29
71194;BME280;58903;47.210;8.618;2023-10-09T08:03:00;95027.19;;;27.14;42.70
71194;BME280;58903;47.210;8.618;2023-10-09T08:05:47;95031.44;;;27.15;43.39
71194;BME280;58903;47.210;8.618;2023-10-09T08:08:15;95031.19;;;27.13;43.25
71194;BME280;58903;47.210;8.618;2023-10-09T08:11:00;95022.16;;;27.13;43.38
71194;BME280;58903;47.210;8.618;2023-10-09T08:13:53;95031.97;;;27.14;43.19
71194;BME280;58903;47.210;8.618;2023-10-09T08:16:26;95034.97;;;27.16;43.57
71194;BME280;58903;47.210;8.618;2023-10-09T08:19:04;95038.97;;;27.15;43.41
71194;BME280;58903;47.210;8.618;2023-10-09T08:22:24;95040.47;;;27.16;43.35
71194;BME280;58903;47.210;8.618;2023-10-09T08:25:10;95042.72;;;27.17;43.22
71194;BME280;58903;47.210;8.618;2023-10-09T08:28:20;95048.25;;;27.17;43.33
71194;BME280;58903;47.210;8.618;2023-10-09T08:31:25;95045.25;;;27.15;43.36
71194;BME280;58903;47.210;8.618;2023-10-09T08:34:06;95052.28;;;27.16;43.04
71194;BME280;58903;47.210;8.618;2023-10-09T08:36:35;95055.06;;;27.16;43.23
71194;BME280;58903;47.210;8.618;2023-10-09T08:39:05;95056.81;;;27.14;43.37
71194;BME280;58903;47.210;8.618;2023-10-09T08:41:50;95069.09;;;27.18;43.36
71194;BME280;58903;47.210;8.618;2023-10-09T08:44:22;95070.34;;;27.17;43.16
71194;BME280;58903;47.210;8.618;2023-10-09T08:47:25;95072.59;;;27.19;43.10
71194;BME280;58903;47.210;8.618;2023-10-09T08:49:56;95067.34;;;27.15;43.29
71194;BME280;58903;47.210;8.618;2023-10-09T08:52:23;95072.59;;;27.19;43.09
71194;BME280;58903;47.210;8.618;2023-10-09T08:54:50;95074.63;;;27.18;43.10
71194;BME280;58903;47.210;8.618;2023-10-09T08:57:17;95076.13;;;27.19;43.10
71194;BME280;58903;47.210;8.618;2023-10-09T08:59:44;95070.34;;;27.17;43.06
71194;BME280;58903;47.210;8.618;2023-10-09T09:02:15;95076.38;;;27.16;43.21
71194;BME280;58903;47.210;8.618;2023-10-09T09:04:41;95079.38;;;27.18;43.27
71194;BME280;58903;47.210;8.618;2023-10-09T09:07:27;95081.63;;;27.19;43.37
71194;BME280;58903;47.210;8.618;2023-10-09T09:09:58;95083.63;;;27.19;43.13
71194;BME280;58903;47.210;8.618;2023-10-09T09:12:29;95082.91;;;27.18;43.81
71194;BME280;58903;47.210;8.618;2023-10-09T09:15:13;95079.38;;;27.12;43.40
71194;BME280;58903;47.210;8.618;2023-10-09T09:17:48;95084.16;;;27.17;43.19
71194;BME280;58903;47.210;8.618;2023-10-09T09:20:43;95083.41;;;27.17;43.30
71194;BME280;58903;47.210;8.618;2023-10-09T09:23:22;95090.94;;;27.16;43.35
71194;BME280;58903;47.210;8.618;2023-10-09T09:25:52;95079.91;;;27.16;43.38
71194;BME280;58903;47.210;8.618;2023-10-09T09:28:51;95074.88;;;27.15;43.51
71194;BME280;58903;47.210;8.618;2023-10-09T09:31:20;95071.38;;;27.14;43.36
71194;BME280;58903;47.210;8.618;2023-10-09T09:33:56;95075.13;;;27.17;43.38
71194;BME280;58903;47.210;8.618;2023-10-09T09:36:26;95071.88;;;27.18;42.66
71194;BME280;58903;47.210;8.618;2023-10-09T09:38:58;95067.84;;;27.19;43.07
71194;BME280;58903;47.210;8.618;2023-10-09T09:41:37;95074.13;;;27.20;43.37
71194;BME280;58903;47.210;8.618;2023-10-09T09:44:21;95067.84;;;27.19;43.07
71194;BME280;58903;47.210;8.618;2023-10-09T09:47:21;95062.78;;;27.23;43.22
71194;BME280;58903;47.210;8.618;2023-10-09T09:50:15;95070.84;;;27.21;43.24
71194;BME280;58903;47.210;8.618;2023-10-09T09:53:05;95072.88;;;27.21;43.24
71194;BME280;58903;47.210;8.618;2023-10-09T09:55:37;95070.84;;;27.21;43.24
71194;BME280;58903;47.210;8.618;2023-10-09T09:58:21;95068.09;;;27.27;43.27
71194;BME280;58903;47.210;8.618;2023-10-09T10:01:03;95067.31;;;27.26;43.32
71194;BME280;58903;47.210;8.618;2023-10-09T10:04:00;95065.31;;;27.27;43.48
71194;BME280;58903;47.210;8.618;2023-10-09T10:06:44;95071.09;;;27.29;43.29
71194;BME280;58903;47.210;8.618;2023-10-09T10:09:36;95067.03;;;27.30;43.08
71194;BME280;58903;47.210;8.618;2023-10-09T10:12:09;95068.31;;;27.29;43.07
71194;BME280;58903;47.210;8.618;2023-10-09T10:15:00;95067.81;;;27.30;43.06
71194;BME280;58903;47.210;8.618;2023-10-09T10:23:43;95050.75;;;27.26;42.94
71194;BME280;58903;47.210;8.618;2023-10-09T10:26:25;95065.03;;;27.30;43.18
71194;BME280;58903;47.210;8.618;2023-10-09T10:29:23;95051.75;;;27.29;43.07
71194;BME280;58903;47.210;8.618;2023-10-09T10:35:27;95059.75;;;27.32;43.14
71194;BME280;58903;47.210;8.618;2023-10-09T10:38:29;95046.75;;;27.27;43.41
71194;BME280;58903;47.210;8.618;2023-10-09T10:41:16;95042.19;;;27.30;43.41
71194;BME280;58903;47.210;8.618;2023-10-09T10:43:57;95045.47;;;27.28;43.07
71194;BME280;58903;47.210;8.618;2023-10-09T10:46:57;95044.22;;;27.29;43.14
71194;BME280;58903;47.210;8.618;2023-10-09T10:49:34;95039.44;;;27.30;43.11
71194;BME280;58903;47.210;8.618;2023-10-09T10:52:03;95038.94;;;27.31;43.02
71194;BME280;58903;47.210;8.618;2023-10-09T10:54:44;95033.41;;;27.31;42.69
71194;BME280;58903;47.210;8.618;2023-10-09T10:57:18;95036.41;;;27.33;43.29
71194;BME280;58903;47.210;8.618;2023-10-09T10:59:57;95032.13;;;27.32;43.14
71194;BME280;58903;47.210;8.618;2023-10-09T11:02:43;95015.56;;;27.32;43.37
71194;BME280;58903;47.210;8.618;2023-10-09T11:05:11;95025.38;;;27.33;43.08
71194;BME280;58903;47.210;8.618;2023-10-09T11:07:52;95010.03;;;27.32;42.96
71194;BME280;58903;47.210;8.618;2023-10-09T11:10:23;95010.03;;;27.32;43.18
71194;BME280;58903;47.210;8.618;2023-10-09T11:12:59;95006.78;;;27.34;43.24
71194;BME280;58903;47.210;8.618;2023-10-09T11:15:38;95012.06;;;27.37;43.41
71194;BME280;58903;47.210;8.618;2023-10-09T11:18:14;95013.56;;;27.38;43.11
71194;BME280;58903;47.210;8.618;2023-10-09T11:20:56;95010.78;;;27.38;42.93
71194;BME280;58903;47.210;8.618;2023-10-09T11:23:31;95019.09;;;27.38;43.05
71194;BME280;58903;47.210;8.618;2023-10-09T11:26:16;95010.78;;;27.38;43.10
71194;BME280;58903;47.210;8.618;2023-10-09T11:32:17;95007.53;;;27.40;43.10
71194;BME280;58903;47.210;8.618;2023-10-09T11:38:03;95000.75;;;27.41;42.61
71194;BME280;58903;47.210;8.618;2023-10-09T11:41:11;95003.03;;;27.42;43.08
71194;BME280;58903;47.210;8.618;2023-10-09T11:44:04;94995.47;;;27.43;43.32
71194;BME280;58903;47.210;8.618;2023-10-09T11:46:57;94991.22;;;27.42;43.62
71194;BME280;58903;47.210;8.618;2023-10-09T11:49:34;94988.22;;;27.40;43.17
71194;BME280;58903;47.210;8.618;2023-10-09T11:52:09;94981.69;;;27.37;43.28
71194;BME280;58903;47.210;8.618;2023-10-09T11:55:12;94986.44;;;27.42;43.19
71194;BME280;58903;47.210;8.618;2023-10-09T11:57:42;94974.34;;;27.45;43.06
71194;BME280;58903;47.210;8.618;2023-10-09T12:00:09;94979.63;;;27.49;43.20
71194;BME280;58903;47.210;8.618;2023-10-09T12:03:04;94976.34;;;27.50;43.26
71194;BME280;58903;47.210;8.618;2023-10-09T12:05:33;94979.13;;;27.50;43.29
71194;BME280;58903;47.210;8.618;2023-10-09T12:08:15;94974.06;;;27.54;42.63
71194;BME280;58903;47.210;8.618;2023-10-09T12:10:53;94971.81;;;27.53;42.84
71194;BME280;58903;47.210;8.618;2023-10-09T12:13:24;94975.31;;;27.53;42.83
71194;BME280;58903;47.210;8.618;2023-10-09T12:16:02;94983.13;;;27.55;43.01
71194;BME280;58903;47.210;8.618;2023-10-09T12:18:34;94979.59;;;27.54;42.91
71194;BME280;58903;47.210;8.618;2023-10-09T12:21:16;94971.31;;;27.54;43.08
71194;BME280;58903;47.210;8.618;2023-10-09T12:24:18;94970.06;;;27.55;42.93
71194;BME280;58903;47.210;8.618;2023-10-09T12:27:00;94970.31;;;27.57;43.20
71194;BME280;58903;47.210;8.618;2023-10-09T12:29:34;94960.50;;;27.56;42.99
71194;BME280;58903;47.210;8.618;2023-10-09T12:32:02;94966.00;;;27.62;42.50
71194;BME280;58903;47.210;8.618;2023-10-09T12:34:29;94966.25;;;27.64;43.20
71194;BME280;58903;47.210;8.618;2023-10-09T12:36:57;94961.69;;;27.67;42.71
71194;BME280;58903;47.210;8.618;2023-10-09T12:39:58;94960.19;;;27.66;42.91
71194;BME280;58903;47.210;8.618;2023-10-09T12:42:42;94956.91;;;27.67;42.97
71194;BME280;58903;47.210;8.618;2023-10-09T12:45:17;94949.38;;;27.68;43.24
71194;BME280;58903;47.210;8.618;2023-10-09T12:47:44;94954.91;;;27.68;43.00
71194;BME280;58903;47.210;8.618;2023-10-09T12:50:11;94947.38;;;27.68;42.92
71194;BME280;58903;47.210;8.618;2023-10-09T12:52:40;94950.38;;;27.70;42.73
71194;BME280;58903;47.210;8.618;2023-10-09T12:55:06;94951.38;;;27.73;42.98
71194;BME280;58903;47.210;8.618;2023-10-09T12:57:38;94938.56;;;27.70;43.15
71194;BME280;58903;47.210;8.618;2023-10-09T13:00:05;94946.34;;;27.71;42.95
71194;BME280;58903;47.210;8.618;2023-10-09T13:02:51;94950.09;;;27.74;43.44
71194;BME280;58903;47.210;8.618;2023-10-09T13:05:33;94947.84;;;27.72;42.82
71194;BME280;58903;47.210;8.618;2023-10-09T13:08:21;94945.09;;;27.72;42.71
71194;BME280;58903;47.210;8.618;2023-10-09T13:11:09;94947.34;;;27.74;43.09
71194;BME280;58903;47.210;8.618;2023-10-09T13:14:09;94950.84;;;27.74;42.54
71194;BME280;58903;47.210;8.618;2023-10-09T13:17:07;94950.84;;;27.74;42.70
71194;BME280;58903;47.210;8.618;2023-10-09T13:19:37;94940.56;;;27.75;43.02
71194;BME280;58903;47.210;8.618;2023-10-09T13:22:10;94935.28;;;27.71;42.92
71194;BME280;58903;47.210;8.618;2023-10-09T13:24:53;94934.25;;;27.74;42.42
71194;BME280;58903;47.210;8.618;2023-10-09T13:27:29;94937.25;;;27.76;42.76
71194;BME280;58903;47.210;8.618;2023-10-09T13:33:41;94934.25;;;27.74;43.25
71194;BME280;58903;47.210;8.618;2023-10-09T13:36:14;94921.69;;;27.73;42.92
71194;BME280;58903;47.210;8.618;2023-10-09T13:38:58;94917.22;;;27.70;43.12
71194;BME280;58903;47.210;8.618;2023-10-09T13:42:12;94920.97;;;27.73;42.68
71194;BME280;58903;47.210;8.618;2023-10-09T13:44:49;94922.44;;;27.74;42.55
71194;BME280;58903;47.210;8.618;2023-10-09T13:47:29;94914.41;;;27.76;42.65
71194;BME280;58903;47.210;8.618;2023-10-09T13:50:26;94919.69;;;27.74;42.79
71194;BME280;58903;47.210;8.618;2023-10-09T13:53:00;94908.88;;;27.76;43.04
71194;BME280;58903;47.210;8.618;2023-10-09T13:55:27;94914.63;;;27.78;43.08
71194;BME280;58903;47.210;8.618;2023-10-09T13:57:58;94907.84;;;27.79;42.91
71194;BME280;58903;47.210;8.618;2023-10-09T14:00:35;94912.09;;;27.80;42.15
71194;BME280;58903;47.210;8.618;2023-10-09T14:03:23;94902.31;;;27.79;42.59
71194;BME280;58903;47.210;8.618;2023-10-09T14:06:04;94896.03;;;27.78;43.06
71194;BME280;58903;47.210;8.618;2023-10-09T14:08:38;94902.56;;;27.81;43.17
71194;BME280;58903;47.210;8.618;2023-10-09T14:11:23;94891.28;;;27.79;43.07
71194;BME280;58903;47.210;8.618;2023-10-09T14:13:53;94893.28;;;27.78;43.18
71194;BME280;58903;47.210;8.618;2023-10-09T14:16:20;94891.03;;;27.77;42.75
71194;BME280;58903;47.210;8.618;2023-10-09T14:18:59;94891.03;;;27.77;43.05
71194;BME280;58903;47.210;8.618;2023-10-09T14:21:27;94897.31;;;27.77;42.71
71194;BME280;58903;47.210;8.618;2023-10-09T14:23:58;94886.50;;;27.79;42.70
71194;BME280;58903;47.210;8.618;2023-10-09T14:26:27;94891.78;;;27.77;42.71
71194;BME280;58903;47.210;8.618;2023-10-09T14:28:56;94885.28;;;27.75;43.01
71194;BME280;58903;47.210;8.618;2023-10-09T14:31:33;94884.97;;;27.78;42.80
71194;BME280;58903;47.210;8.618;2023-10-09T14:34:18;94878.69;;;27.78;42.80
71194;BME280;58903;47.210;8.618;2023-10-09T14:36:44;94875.69;;;27.76;43.11
71194;BME280;58903;47.210;8.618;2023-10-09T14:39:24;94866.91;;;27.77;42.83